Time,TemperatureF,DewpointF,PressureIn,WindDirection,WindDirectionDegrees,WindSpeedMPH,WindSpeedGustMPH,Humidity,HourlyPrecipIn,Conditions,Clouds,dailyrainin,SolarRadiationWatts/m^2,SoftwareType,DateUTC
2013-03-11 00:02:00,44.0,27.0,-100.00,NW,321,1.0,2.0,51,-99.99,,,-99.99,0.000000,,2013-03-11 07:02:00,
2013-03-11 00:12:00,44.0,21.0,-100.00,East,92,4.0,6.0,40,-99.99,,,-99.99,0.000000,,2013-03-11 07:12:00,
2013-03-11 00:21:00,46.0,17.0,-100.00,ESE,105,6.0,9.0,31,-99.99,,,-99.99,0.010000,,2013-03-11 07:21:00,
2013-03-11 00:32:00,47.0,16.0,-100.00,East,95,4.0,9.0,28,-99.99,,,-99.99,0.000000,,2013-03-11 07:32:00,
2013-03-11 00:42:00,47.0,15.0,-100.00,ENE,67,3.0,6.0,27,-99.99,,,-99.99,0.000000,,2013-03-11 07:42:00,
2013-03-11 00:52:00,47.0,14.0,-100.00,ENE,72,4.0,7.0,26,-99.99,,,-99.99,0.000000,,2013-03-11 07:52:00,
2013-03-11 01:02:00,48.0,14.0,-100.00,East,96,4.0,9.0,25,-99.99,,,-99.99,0.000000,,2013-03-11 08:02:00,
2013-03-11 01:11:00,48.0,14.0,-100.00,North,357,1.0,4.0,25,-99.99,,,-99.99,0.000000,,2013-03-11 08:11:00,
2013-03-11 01:22:00,47.0,14.0,-100.00,WNW,286,1.0,2.0,26,-99.99,,,-99.99,0.000000,,2013-03-11 08:22:00,
2013-03-11 01:32:00,47.0,14.0,-100.00,WNW,286,1.0,2.0,26,-99.99,,,-99.99,0.000000,,2013-03-11 08:32:00,
2013-03-11 01:42:00,46.0,15.0,-100.00,NNE,18,1.0,3.0,28,-99.99,,,-99.99,0.000000,,2013-03-11 08:42:00,
2013-03-11 01:51:00,45.0,14.0,-100.00,ENE,77,2.0,5.0,28,-99.99,,,-99.99,0.000000,,2013-03-11 08:51:00,
2013-03-11 02:02:00,46.0,14.0,-100.00,East,93,3.0,9.0,27,-99.99,,,-99.99,0.000000,,2013-03-11 09:02:00,
2013-03-11 02:12:00,48.0,14.0,-100.00,East,93,7.0,12.0,25,-99.99,,,-99.99,0.000000,,2013-03-11 09:12:00,
2013-03-11 02:22:00,48.0,12.0,-100.00,East,95,8.0,13.0,23,-99.99,,,-99.99,0.000000,,2013-03-11 09:22:00,
2013-03-11 02:32:00,49.0,13.0,-100.00,East,93,7.0,12.0,23,-99.99,,,-99.99,0.000000,,2013-03-11 09:32:00,
2013-03-11 02:42:00,48.0,12.0,-100.00,East,92,6.0,11.0,23,-99.99,,,-99.99,0.000000,,2013-03-11 09:42:00,
2013-03-11 02:52:00,48.0,12.0,-100.00,East,80,7.0,11.0,23,-99.99,,,-99.99,0.000000,,2013-03-11 09:52:00,
2013-03-11 03:02:00,48.0,12.0,-100.00,ENE,78,7.0,12.0,23,-99.99,,,-99.99,0.000000,,2013-03-11 10:02:00,
2013-03-11 03:12:00,48.0,12.0,-100.00,East,80,7.0,11.0,23,-99.99,,,-99.99,0.000000,,2013-03-11 10:12:00,
2013-03-11 03:21:00,48.0,11.0,-100.00,East,83,7.0,12.0,22,-99.99,,,-99.99,0.000000,,2013-03-11 10:21:00,
2013-03-11 03:32:00,49.0,12.0,-100.00,East,87,6.0,11.0,22,-99.99,,,-99.99,0.000000,,2013-03-11 10:32:00,
2013-03-11 03:41:00,49.0,11.0,-100.00,East,80,6.0,10.0,21,-99.99,,,-99.99,0.000000,,2013-03-11 10:41:00,
2013-03-11 03:52:00,49.0,11.0,-100.00,East,79,6.0,9.0,21,-99.99,,,-99.99,0.000000,,2013-03-11 10:52:00,
2013-03-11 04:02:00,49.0,11.0,-100.00,ENE,77,6.0,11.0,21,-99.99,,,-99.99,0.000000,,2013-03-11 11:02:00,
2013-03-11 04:11:00,49.0,10.0,-100.00,East,86,5.0,9.0,20,-99.99,,,-99.99,0.000000,,2013-03-11 11:11:00,
2013-03-11 04:22:00,50.0,11.0,-100.00,East,89,6.0,11.0,20,-99.99,,,-99.99,0.000000,,2013-03-11 11:22:00,
2013-03-11 04:32:00,50.0,11.0,-100.00,East,88,7.0,12.0,20,-99.99,,,-99.99,0.000000,,2013-03-11 11:32:00,
2013-03-11 04:42:00,50.0,11.0,-100.00,East,88,7.0,12.0,20,-99.99,,,-99.99,0.000000,,2013-03-11 11:42:00,
2013-03-11 04:52:00,50.0,11.0,-100.00,East,87,7.0,11.0,20,-99.99,,,-99.99,0.000000,,2013-03-11 11:52:00,
2013-03-11 05:02:00,50.0,11.0,-100.00,East,91,7.0,12.0,20,-99.99,,,-99.99,0.000000,,2013-03-11 12:02:00,
2013-03-11 05:10:00,48.0,11.0,-100.00,East,87,5.0,9.0,22,-99.99,,,-99.99,0.000000,,2013-03-11 12:10:00,
2013-03-11 05:11:00,50.0,11.0,-100.00,East,82,6.0,10.0,20,-99.99,,,-99.99,0.000000,,2013-03-11 12:11:00,
2013-03-11 05:21:00,49.0,11.0,-100.00,ENE,73,6.0,9.0,21,-99.99,,,-99.99,0.000000,,2013-03-11 12:21:00,
2013-03-11 05:32:00,48.0,11.0,-100.00,East,86,5.0,9.0,22,-99.99,,,-99.99,0.000000,,2013-03-11 12:32:00,
2013-03-11 05:42:00,48.0,11.0,-100.00,East,87,5.0,9.0,22,-99.99,,,-99.99,0.000000,,2013-03-11 12:42:00,
2013-03-11 05:52:00,48.0,11.0,-100.00,East,87,5.0,9.0,22,-99.99,,,-99.99,0.000000,,2013-03-11 12:52:00,
2013-03-11 06:02:00,48.0,11.0,-100.00,East,87,5.0,9.0,22,-99.99,,,-99.99,0.000000,,2013-03-11 13:02:00,
2013-03-11 07:52:00,50.0,11.0,-100.00,East,99,7.0,10.0,20,-99.99,,,-99.99,12.820000,,2013-03-11 14:52:00,
2013-03-11 08:02:00,50.0,9.0,-100.00,East,97,7.0,10.0,19,-99.99,,,-99.99,29.950001,,2013-03-11 15:02:00,
2013-03-11 08:12:00,51.0,11.0,-100.00,East,98,7.0,10.0,20,-99.99,,,-99.99,86.500000,,2013-03-11 15:12:00,
2013-03-11 08:22:00,53.0,12.0,-100.00,East,96,8.0,11.0,19,-99.99,,,-99.99,131.899994,,2013-03-11 15:22:00,
2013-03-11 08:32:00,53.0,12.0,-100.00,East,89,7.0,11.0,19,-99.99,,,-99.99,168.399994,,2013-03-11 15:32:00,
2013-03-11 08:42:00,54.0,13.0,-100.00,East,93,7.0,12.0,19,-99.99,,,-99.99,203.699997,,2013-03-11 15:42:00,
2013-03-11 08:52:00,54.0,13.0,-100.00,East,93,8.0,14.0,19,-99.99,,,-99.99,241.300003,,2013-03-11 15:52:00,
2013-03-11 09:00:00,56.0,17.0,-100.00,East,91,9.0,14.0,21,-99.99,,,-99.99,394.200012,,2013-03-11 16:00:00,
2013-03-11 09:02:00,54.0,13.0,-100.00,East,93,8.0,14.0,19,-99.99,,,-99.99,241.300003,,2013-03-11 16:02:00,
2013-03-11 09:12:00,55.0,16.0,-100.00,East,89,7.0,12.0,21,-99.99,,,-99.99,317.799988,,2013-03-11 16:12:00,
2013-03-11 09:22:00,55.0,16.0,-100.00,East,89,8.0,13.0,21,-99.99,,,-99.99,356.000000,,2013-03-11 16:22:00,
2013-03-11 09:32:00,56.0,17.0,-100.00,East,91,9.0,14.0,21,-99.99,,,-99.99,394.200012,,2013-03-11 16:32:00,
2013-03-11 09:42:00,56.0,17.0,-100.00,East,91,9.0,14.0,21,-99.99,,,-99.99,394.200012,,2013-03-11 16:42:00,
2013-03-11 09:52:00,56.0,17.0,-100.00,East,91,9.0,14.0,21,-99.99,,,-99.99,394.200012,,2013-03-11 16:52:00,
2013-03-11 10:34:00,56.0,17.0,-100.00,East,84,10.0,16.0,21,-99.99,,,-99.99,606.000000,,2013-03-11 17:34:00,
2013-03-11 10:42:00,56.0,17.0,-100.00,ENE,76,10.0,15.0,21,-99.99,,,-99.99,637.599976,,2013-03-11 17:42:00,
2013-03-11 10:52:00,57.0,19.0,-100.00,East,85,10.0,15.0,22,-99.99,,,-99.99,667.799988,,2013-03-11 17:52:00,
2013-03-11 11:02:00,57.0,19.0,-100.00,East,85,10.0,15.0,22,-99.99,,,-99.99,667.799988,,2013-03-11 18:02:00,
2013-03-11 11:11:00,57.0,19.0,-100.00,ENE,74,9.0,15.0,22,-99.99,,,-99.99,724.400024,,2013-03-11 18:11:00,
2013-03-11 11:22:00,58.0,18.0,-100.00,East,81,9.0,15.0,21,-99.99,,,-99.99,750.900024,,2013-03-11 18:22:00,
2013-03-11 11:32:00,58.0,18.0,-100.00,ENE,76,10.0,16.0,21,-99.99,,,-99.99,775.000000,,2013-03-11 18:32:00,
2013-03-11 11:42:00,58.0,18.0,-100.00,ENE,68,9.0,15.0,21,-99.99,,,-99.99,797.500000,,2013-03-11 18:42:00,
2013-03-11 11:52:00,58.0,18.0,-100.00,East,92,10.0,15.0,21,-99.99,,,-99.99,820.000000,,2013-03-11 18:52:00,
2013-03-11 12:02:00,58.0,18.0,-100.00,East,84,10.0,17.0,21,-99.99,,,-99.99,839.000000,,2013-03-11 19:02:00,
2013-03-11 12:12:00,58.0,18.0,-100.00,East,87,10.0,16.0,21,-99.99,,,-99.99,857.000000,,2013-03-11 19:12:00,
2013-03-11 12:22:00,59.0,18.0,-100.00,East,85,10.0,15.0,20,-99.99,,,-99.99,873.000000,,2013-03-11 19:22:00,
2013-03-11 12:32:00,59.0,18.0,-100.00,East,85,9.0,15.0,20,-99.99,,,-99.99,887.000000,,2013-03-11 19:32:00,
2013-03-11 12:42:00,59.0,17.0,-100.00,ENE,78,9.0,13.0,19,-99.99,,,-99.99,899.000000,,2013-03-11 19:42:00,
2013-03-11 12:52:00,60.0,16.0,-100.00,ENE,73,9.0,15.0,18,-99.99,,,-99.99,909.000000,,2013-03-11 19:52:00,
2013-03-11 13:02:00,60.0,15.0,-100.00,ENE,76,8.0,15.0,17,-99.99,,,-99.99,888.000000,,2013-03-11 20:02:00,
2013-03-11 13:11:00,60.0,16.0,-100.00,ENE,72,8.0,12.0,18,-99.99,,,-99.99,922.000000,,2013-03-11 20:11:00,
2013-03-11 13:22:00,61.0,17.0,-100.00,East,90,7.0,13.0,18,-99.99,,,-99.99,925.000000,,2013-03-11 20:22:00,
2013-03-11 13:32:00,61.0,16.0,-100.00,ENE,78,7.0,13.0,17,-99.99,,,-99.99,926.000000,,2013-03-11 20:32:00,
2013-03-11 13:42:00,61.0,16.0,-100.00,ENE,77,7.0,14.0,17,-99.99,,,-99.99,925.000000,,2013-03-11 20:42:00,
2013-03-11 13:52:00,62.0,17.0,-100.00,East,99,7.0,12.0,17,-99.99,,,-99.99,921.000000,,2013-03-11 20:52:00,
2013-03-11 14:02:00,61.0,16.0,-100.00,East,91,8.0,11.0,17,-99.99,,,-99.99,916.000000,,2013-03-11 21:02:00,
2013-03-11 14:12:00,62.0,15.0,-100.00,East,82,7.0,13.0,16,-99.99,,,-99.99,910.000000,,2013-03-11 21:12:00,
2013-03-11 14:22:00,63.0,16.0,-100.00,ENE,71,5.0,10.0,16,-99.99,,,-99.99,902.000000,,2013-03-11 21:22:00,
2013-03-11 14:32:00,63.0,18.0,-100.00,East,95,5.0,16.0,17,-99.99,,,-99.99,891.000000,,2013-03-11 21:32:00,
2013-03-11 14:43:00,62.0,15.0,-100.00,ENE,68,6.0,11.0,16,-99.99,,,-99.99,878.000000,,2013-03-11 21:43:00,
2013-03-11 14:51:00,63.0,16.0,-100.00,NE,39,4.0,10.0,16,-99.99,,,-99.99,864.000000,,2013-03-11 21:51:00,
2013-03-11 15:02:00,63.0,16.0,-100.00,NE,39,4.0,10.0,16,-99.99,,,-99.99,864.000000,,2013-03-11 22:02:00,
2013-03-11 15:12:00,63.0,16.0,-100.00,ENE,78,6.0,10.0,16,-99.99,,,-99.99,830.000000,,2013-03-11 22:12:00,
2013-03-11 15:22:00,64.0,17.0,-100.00,East,81,4.0,9.0,16,-99.99,,,-99.99,810.000000,,2013-03-11 22:22:00,
2013-03-11 15:32:00,64.0,17.0,-100.00,NE,56,5.0,10.0,16,-99.99,,,-99.99,787.200012,,2013-03-11 22:32:00,
2013-03-11 15:43:00,64.0,15.0,-100.00,ENE,60,4.0,9.0,15,-99.99,,,-99.99,762.000000,,2013-03-11 22:43:00,
2013-03-11 15:52:00,65.0,18.0,-100.00,East,97,2.0,5.0,16,-99.99,,,-99.99,733.900024,,2013-03-11 22:52:00,
2013-03-11 16:02:00,65.0,25.0,-100.00,SSE,159,2.0,4.0,22,-99.99,,,-99.99,702.700012,,2013-03-11 23:02:00,
2013-03-11 16:12:00,65.0,30.0,-100.00,NW,310,2.0,7.0,27,-99.99,,,-99.99,675.799988,,2013-03-11 23:12:00,
2013-03-11 16:21:00,64.0,31.0,-100.00,West,281,5.0,10.0,29,-99.99,,,-99.99,644.099976,,2013-03-11 23:21:00,
2013-03-11 16:32:00,64.0,32.0,-100.00,West,279,6.0,10.0,30,-99.99,,,-99.99,612.500000,,2013-03-11 23:32:00,
2013-03-11 16:42:00,63.0,31.0,-100.00,West,274,6.0,9.0,30,-99.99,,,-99.99,581.599976,,2013-03-11 23:42:00,
2013-03-11 16:52:00,63.0,32.0,-100.00,West,272,5.0,9.0,31,-99.99,,,-99.99,546.900024,,2013-03-11 23:52:00,
2013-03-11 17:02:00,63.0,32.0,-100.00,West,272,5.0,9.0,31,-99.99,,,-99.99,546.900024,,2013-03-12 00:02:00,
2013-03-11 17:12:00,63.0,33.0,-100.00,West,274,6.0,10.0,32,-99.99,,,-99.99,477.200012,,2013-03-12 00:12:00,
2013-03-11 17:22:00,62.0,32.0,-100.00,West,276,5.0,9.0,32,-99.99,,,-99.99,441.399994,,2013-03-12 00:22:00,
2013-03-11 17:32:00,63.0,33.0,-100.00,West,267,4.0,8.0,33,-99.99,,,-99.99,404.700012,,2013-03-12 00:32:00,
2013-03-11 17:42:00,62.0,33.0,-100.00,West,265,5.0,9.0,33,-99.99,,,-99.99,367.000000,,2013-03-12 00:42:00,
2013-03-11 17:52:00,62.0,33.0,-100.00,West,274,5.0,10.0,34,-99.99,,,-99.99,329.899994,,2013-03-12 00:52:00,
2013-03-11 18:02:00,62.0,34.0,-100.00,West,266,5.0,8.0,35,-99.99,,,-99.99,290.600006,,2013-03-12 01:02:00,
2013-03-11 18:11:00,61.0,33.0,-100.00,West,273,5.0,8.0,35,-99.99,,,-99.99,253.100006,,2013-03-12 01:11:00,
2013-03-11 18:22:00,61.0,33.0,-100.00,West,275,4.0,7.0,35,-99.99,,,-99.99,216.300003,,2013-03-12 01:22:00,
2013-03-11 18:32:00,61.0,35.0,-100.00,West,260,3.0,5.0,37,-99.99,,,-99.99,144.899994,,2013-03-12 01:32:00,
2013-03-11 18:42:00,61.0,35.0,-100.00,West,260,3.0,5.0,37,-99.99,,,-99.99,144.899994,,2013-03-12 01:42:00,
2013-03-11 18:52:00,61.0,35.0,-100.00,WSW,253,2.0,5.0,37,-99.99,,,-99.99,105.099998,,2013-03-12 01:52:00,
2013-03-11 19:02:00,60.0,35.0,-100.00,WSW,256,3.0,5.0,39,-99.99,,,-99.99,52.959999,,2013-03-12 02:02:00,
2013-03-11 19:12:00,58.0,35.0,-100.00,WSW,251,2.0,4.0,42,-99.99,,,-99.99,14.720000,,2013-03-12 02:12:00,
2013-03-11 19:22:00,57.0,36.0,-100.00,WSW,239,2.0,4.0,45,-99.99,,,-99.99,8.120000,,2013-03-12 02:22:00,
2013-03-11 19:32:00,56.0,37.0,-100.00,WSW,241,2.0,3.0,49,-99.99,,,-99.99,3.210000,,2013-03-12 02:32:00,
2013-03-11 19:42:00,55.0,37.0,-100.00,SW,232,2.0,3.0,50,-99.99,,,-99.99,0.620000,,2013-03-12 02:42:00,
2013-03-11 19:52:00,54.0,37.0,-100.00,SW,236,2.0,3.0,52,-99.99,,,-99.99,0.000000,,2013-03-12 02:52:00,
2013-03-11 20:01:00,54.0,37.0,-100.00,SW,236,2.0,3.0,52,-99.99,,,-99.99,0.000000,,2013-03-12 03:01:00,
2013-03-11 20:12:00,52.0,36.0,-100.00,WSW,237,1.0,3.0,55,-99.99,,,-99.99,0.000000,,2013-03-12 03:12:00,
2013-03-11 20:22:00,53.0,37.0,-100.00,SW,230,1.0,3.0,55,-99.99,,,-99.99,0.000000,,2013-03-12 03:22:00,
2013-03-11 20:32:00,50.0,37.0,-100.00,SW,236,1.0,2.0,60,-99.99,,,-99.99,0.000000,,2013-03-12 03:32:00,
2013-03-11 20:42:00,51.0,37.0,-100.00,SW,222,2.0,3.0,59,-99.99,,,-99.99,0.000000,,2013-03-12 03:42:00,
2013-03-11 20:52:00,52.0,37.0,-100.00,SW,220,2.0,3.0,56,-99.99,,,-99.99,0.000000,,2013-03-12 03:52:00,
2013-03-11 21:02:00,52.0,37.0,-100.00,SW,220,2.0,3.0,56,-99.99,,,-99.99,0.000000,,2013-03-12 04:02:00,
2013-03-11 21:12:00,48.0,37.0,-100.00,SW,226,1.0,2.0,66,-99.99,,,-99.99,0.000000,,2013-03-12 04:12:00,
2013-03-11 21:22:00,47.0,37.0,-100.00,SW,217,1.0,1.0,69,-99.99,,,-99.99,0.000000,,2013-03-12 04:22:00,
2013-03-11 21:32:00,46.0,37.0,-100.00,SW,219,1.0,1.0,70,-99.99,,,-99.99,0.000000,,2013-03-12 04:32:00,
2013-03-11 21:42:00,45.0,37.0,-100.00,WSW,241,1.0,2.0,72,-99.99,,,-99.99,0.000000,,2013-03-12 04:42:00,
2013-03-11 21:52:00,45.0,35.0,-100.00,WSW,239,1.0,1.0,69,-99.99,,,-99.99,0.000000,,2013-03-12 04:52:00,
2013-03-11 22:02:00,45.0,36.0,-100.00,WSW,256,1.0,1.0,70,-99.99,,,-99.99,0.000000,,2013-03-12 05:02:00,
2013-03-11 22:12:00,45.0,35.0,-100.00,WSW,258,1.0,2.0,68,-99.99,,,-99.99,0.000000,,2013-03-12 05:12:00,
2013-03-11 22:21:00,44.0,35.0,-100.00,WSW,247,1.0,1.0,70,-99.99,,,-99.99,0.000000,,2013-03-12 05:21:00,
2013-03-11 22:32:00,47.0,32.0,-100.00,SW,231,1.0,2.0,56,-99.99,,,-99.99,0.000000,,2013-03-12 05:32:00,
2013-03-11 22:42:00,47.0,32.0,-100.00,SW,231,1.0,2.0,56,-99.99,,,-99.99,0.000000,,2013-03-12 05:42:00,
2013-03-11 22:52:00,45.0,32.0,-100.00,WSW,249,1.0,2.0,61,-99.99,,,-99.99,0.000000,,2013-03-12 05:52:00,
2013-03-11 23:02:00,45.0,32.0,-100.00,WSW,249,1.0,2.0,61,-99.99,,,-99.99,0.000000,,2013-03-12 06:02:00,
2013-03-11 23:11:00,47.0,32.0,-100.00,SW,227,1.0,2.0,56,-99.99,,,-99.99,0.000000,,2013-03-12 06:11:00,
2013-03-11 23:22:00,50.0,32.0,-100.00,SW,233,1.0,4.0,49,-99.99,,,-99.99,0.000000,,2013-03-12 06:22:00,
2013-03-11 23:32:00,45.0,32.0,-100.00,SW,225,1.0,1.0,60,-99.99,,,-99.99,0.000000,,2013-03-12 06:32:00,
2013-03-11 23:42:00,45.0,32.0,-100.00,SW,225,1.0,1.0,60,-99.99,,,-99.99,0.000000,,2013-03-12 06:42:00,
2013-03-11 23:52:00,43.0,31.0,-100.00,West,261,1.0,2.0,63,-99.99,,,-99.99,0.000000,,2013-03-12 06:52:00,